createdAt,value
2023-05-13T00:00:00.230Z,34.45
2023-05-13T00:01:00.216Z,34.41
2023-05-13T00:02:00.278Z,34.41
2023-05-13T00:03:00.430Z,34.37
2023-05-13T00:04:00.403Z,34.40
2023-05-13T00:05:00.470Z,34.39
2023-05-13T00:06:00.616Z,34.43
2023-05-13T00:07:00.583Z,34.42
2023-05-13T00:08:00.632Z,34.40
2023-05-13T00:09:00.704Z,34.44
2023-05-13T00:10:00.769Z,34.40
2023-05-13T00:11:00.867Z,34.40
2023-05-13T00:12:00.854Z,34.41
2023-05-13T00:13:00.917Z,34.41
2023-05-13T00:14:00.966Z,34.41
2023-05-13T00:15:01.268Z,34.38
2023-05-13T00:16:01.130Z,34.39
2023-05-13T00:17:01.116Z,34.42
2023-05-13T00:18:01.243Z,34.39
2023-05-13T00:19:01.877Z,34.37
2023-05-13T00:20:01.268Z,34.35
2023-05-13T00:21:01.338Z,34.36
2023-05-13T00:22:01.403Z,34.39
2023-05-13T00:23:01.446Z,34.40
2023-05-13T00:24:01.496Z,34.42
2023-05-13T00:25:01.542Z,34.38
2023-05-13T00:26:01.608Z,34.40
2023-05-13T00:27:01.666Z,34.36
2023-05-13T00:28:01.768Z,34.33
2023-05-13T00:29:01.792Z,34.37
2023-05-13T00:30:01.926Z,34.39
2023-05-13T00:31:01.899Z,34.37
2023-05-13T00:32:02.025Z,34.38
2023-05-13T00:33:02.389Z,34.38
2023-05-13T00:34:02.079Z,34.37
2023-05-13T00:35:02.128Z,34.40
2023-05-13T00:36:02.194Z,34.40
2023-05-13T00:37:02.857Z,34.40
2023-05-13T00:38:02.422Z,34.40
2023-05-13T00:39:02.371Z,34.42
2023-05-13T00:40:02.422Z,34.35
2023-05-13T00:41:02.480Z,34.37
2023-05-13T00:42:02.531Z,34.37
2023-05-13T00:43:02.594Z,34.38
2023-05-13T00:44:02.727Z,34.36
2023-05-13T00:45:02.701Z,34.36
2023-05-13T00:46:02.852Z,34.40
2023-05-13T00:47:02.824Z,34.38
2023-05-13T00:48:03.416Z,34.37
2023-05-13T00:49:02.940Z,34.39
2023-05-13T00:50:02.991Z,34.38
2023-05-13T00:51:03.060Z,34.39
2023-05-13T00:52:03.124Z,34.38
2023-05-13T00:53:03.378Z,34.36
2023-05-13T00:54:03.252Z,34.39
2023-05-13T00:55:03.291Z,34.39
2023-05-13T00:56:03.344Z,34.36
2023-05-13T00:57:03.391Z,34.38
2023-05-13T00:58:03.467Z,34.38
2023-05-13T00:59:03.539Z,34.36
2023-05-13T01:00:03.564Z,34.34
2023-05-13T01:01:03.652Z,34.36
2023-05-13T01:02:04.439Z,34.37
2023-05-13T01:03:03.809Z,34.37
2023-05-13T01:04:03.796Z,34.36
2023-05-13T01:05:03.851Z,34.38
2023-05-13T01:06:03.915Z,34.37
2023-05-13T01:07:03.986Z,34.37
2023-05-13T01:08:04.055Z,34.32
2023-05-13T01:09:04.098Z,34.41
2023-05-13T01:10:04.165Z,34.42
2023-05-13T01:11:04.873Z,34.42
2023-05-13T01:12:04.286Z,34.38
2023-05-13T01:13:04.348Z,34.36
2023-05-13T01:14:04.396Z,34.38
2023-05-13T01:15:04.467Z,34.37
2023-05-13T01:16:04.524Z,34.39
2023-05-13T01:17:04.692Z,34.34
2023-05-13T01:18:04.682Z,34.34
2023-05-13T01:19:04.758Z,34.36
2023-05-13T01:20:04.719Z,34.38
2023-05-13T01:21:04.773Z,34.38
2023-05-13T01:22:04.803Z,34.36
2023-05-13T01:23:04.945Z,34.38
2023-05-13T01:24:04.941Z,34.33
2023-05-13T01:25:04.987Z,34.36
2023-05-13T01:26:05.033Z,34.38
2023-05-13T01:27:05.082Z,34.37
2023-05-13T01:28:05.142Z,34.34
2023-05-13T01:29:05.176Z,34.38
2023-05-13T01:30:05.250Z,34.33
2023-05-13T01:31:05.289Z,34.35
2023-05-13T01:32:05.343Z,34.36
2023-05-13T01:33:05.362Z,34.39
2023-05-13T01:34:05.357Z,34.36
2023-05-13T01:35:05.377Z,34.38
2023-05-13T01:36:05.388Z,34.39
2023-05-13T01:37:05.434Z,34.38
2023-05-13T01:38:05.438Z,34.41
2023-05-13T01:39:05.462Z,34.34
2023-05-13T01:40:14.395Z,34.36
2023-05-13T01:41:06.484Z,34.34
2023-05-13T01:42:05.475Z,34.39
2023-05-13T01:43:05.467Z,34.38
2023-05-13T01:44:05.454Z,34.38
2023-05-13T01:45:05.457Z,34.34
2023-05-13T01:46:05.452Z,34.38
2023-05-13T01:47:05.431Z,34.41
2023-05-13T01:48:05.482Z,34.34
2023-05-13T01:49:05.442Z,34.36
2023-05-13T01:50:05.426Z,34.36
2023-05-13T01:51:05.402Z,34.38
2023-05-13T01:52:05.403Z,34.32
2023-05-13T01:53:05.422Z,34.34
2023-05-13T01:54:05.449Z,34.38
2023-05-13T01:55:05.513Z,34.38
2023-05-13T01:56:05.644Z,34.39
2023-05-13T01:57:05.635Z,34.36
2023-05-13T01:58:05.687Z,34.32
2023-05-13T01:59:05.709Z,34.36
2023-05-13T02:00:05.750Z,34.34
2023-05-13T02:01:05.804Z,34.35
2023-05-13T02:02:05.887Z,34.38
2023-05-13T02:03:06.004Z,34.35
2023-05-13T02:04:06.110Z,34.34
2023-05-13T02:05:06.025Z,34.36
2023-05-13T02:06:06.064Z,34.32
2023-05-13T02:07:06.175Z,34.36
2023-05-13T02:08:06.147Z,34.39
2023-05-13T02:09:06.893Z,34.39
2023-05-13T02:10:06.243Z,34.35
2023-05-13T02:11:06.254Z,34.36
2023-05-13T02:12:06.286Z,34.35
2023-05-13T02:13:06.313Z,34.35
2023-05-13T02:14:06.330Z,34.34
2023-05-13T02:15:06.397Z,34.34
2023-05-13T02:16:06.438Z,34.35
2023-05-13T02:17:06.450Z,34.39
2023-05-13T02:18:06.575Z,34.38
2023-05-13T02:19:06.675Z,34.33
2023-05-13T02:20:06.613Z,34.37
2023-05-13T02:21:06.900Z,34.36
2023-05-13T02:22:06.705Z,34.34
2023-05-13T02:23:06.741Z,34.35
2023-05-13T02:24:06.770Z,34.38
2023-05-13T02:25:06.796Z,34.35
2023-05-13T02:26:06.828Z,34.37
2023-05-13T02:27:06.859Z,34.39
2023-05-13T02:28:06.908Z,34.34
2023-05-13T02:29:06.939Z,34.35
2023-05-13T02:30:07.021Z,34.33
2023-05-13T02:31:06.954Z,34.31
2023-05-13T02:32:07.146Z,34.31
2023-05-13T02:33:07.074Z,34.35
2023-05-13T02:34:07.061Z,34.33
2023-05-13T02:35:07.079Z,34.37
2023-05-13T02:36:07.110Z,34.36
2023-05-13T02:37:07.145Z,34.35
2023-05-13T02:38:07.147Z,34.38
2023-05-13T02:39:07.172Z,34.32
2023-05-13T02:40:07.903Z,34.32
2023-05-13T02:41:07.236Z,34.32
2023-05-13T02:42:07.332Z,34.35
2023-05-13T02:43:07.277Z,34.35
2023-05-13T02:44:07.308Z,34.30
2023-05-13T02:45:07.328Z,34.32
2023-05-13T02:46:07.385Z,34.36
2023-05-13T02:47:07.358Z,34.31
2023-05-13T02:48:07.383Z,34.39
2023-05-13T02:49:07.372Z,34.36
2023-05-13T02:50:07.377Z,34.35
2023-05-13T02:51:07.402Z,34.38
2023-05-13T02:52:07.414Z,34.36
2023-05-13T02:53:07.444Z,34.36
2023-05-13T02:54:07.458Z,34.37
2023-05-13T02:55:07.556Z,34.33
2023-05-13T02:56:07.509Z,34.35
2023-05-13T02:57:07.522Z,34.36
2023-05-13T02:58:07.549Z,34.35
2023-05-13T02:59:07.646Z,34.34
2023-05-13T03:00:07.561Z,34.38
2023-05-13T03:01:07.622Z,34.33
2023-05-13T03:02:07.639Z,34.36
2023-05-13T03:03:07.694Z,34.34
2023-05-13T03:04:07.643Z,34.33
2023-05-13T03:05:07.655Z,34.34
2023-05-13T03:06:07.663Z,34.29
2023-05-13T03:07:07.675Z,34.32
2023-05-13T03:08:07.704Z,34.36
2023-05-13T03:09:07.699Z,34.32
2023-05-13T03:10:07.728Z,34.33
2023-05-13T03:11:08.420Z,34.34
2023-05-13T03:12:07.751Z,34.35
2023-05-13T03:13:07.766Z,34.30
2023-05-13T03:14:07.829Z,34.34
2023-05-13T03:15:07.764Z,34.32
2023-05-13T03:16:07.849Z,34.32
2023-05-13T03:17:07.774Z,34.32
2023-05-13T03:18:07.807Z,34.34
2023-05-13T03:19:07.821Z,34.34
2023-05-13T03:20:07.797Z,34.30
2023-05-13T03:21:07.792Z,34.37
2023-05-13T03:22:07.795Z,34.34
2023-05-13T03:23:07.785Z,34.37
2023-05-13T03:24:07.808Z,34.37
2023-05-13T03:25:07.809Z,34.37
2023-05-13T03:26:07.829Z,34.32
2023-05-13T03:27:07.822Z,34.37
2023-05-13T03:28:07.823Z,34.36
2023-05-13T03:29:07.839Z,34.33
2023-05-13T03:30:07.838Z,34.38
2023-05-13T03:31:07.882Z,34.38
2023-05-13T03:32:07.843Z,34.34
2023-05-13T03:33:07.862Z,34.37
2023-05-13T03:34:07.852Z,34.34
2023-05-13T03:35:07.845Z,34.37
2023-05-13T03:36:07.851Z,34.38
2023-05-13T03:37:07.897Z,34.37
2023-05-13T03:38:07.857Z,34.33
2023-05-13T03:39:07.896Z,34.38
2023-05-13T03:40:07.872Z,34.35
2023-05-13T03:41:07.878Z,34.35
2023-05-13T03:42:07.872Z,34.37
2023-05-13T03:43:07.879Z,34.35
2023-05-13T03:44:07.882Z,34.38
2023-05-13T03:45:07.874Z,34.33
2023-05-13T03:46:07.875Z,34.37
2023-05-13T03:47:08.054Z,34.34
2023-05-13T03:48:07.920Z,34.36
2023-05-13T03:49:07.870Z,34.42
2023-05-13T03:50:07.893Z,34.38
2023-05-13T03:51:07.876Z,34.38
2023-05-13T03:52:07.876Z,34.32
2023-05-13T03:53:07.878Z,34.37
2023-05-13T03:54:07.885Z,34.37
2023-05-13T03:55:07.877Z,34.35
2023-05-13T03:56:07.886Z,34.37
2023-05-13T03:57:07.883Z,34.37
2023-05-13T03:58:07.889Z,34.38
2023-05-13T03:59:07.871Z,34.34
2023-05-13T04:00:07.878Z,34.37
2023-05-13T04:01:07.877Z,34.40
2023-05-13T04:02:07.983Z,34.34
2023-05-13T04:03:07.936Z,34.40
2023-05-13T04:04:07.890Z,34.40
2023-05-13T04:05:07.947Z,34.34
2023-05-13T04:06:07.908Z,34.36
2023-05-13T04:07:07.914Z,34.42
2023-05-13T04:08:07.909Z,34.38
2023-05-13T04:09:07.911Z,34.37
2023-05-13T04:10:07.906Z,34.38
2023-05-13T04:11:07.889Z,34.38
2023-05-13T04:12:07.894Z,34.38
2023-05-13T04:13:07.885Z,34.40
2023-05-13T04:14:07.903Z,34.40
2023-05-13T04:15:07.919Z,34.36
2023-05-13T04:16:07.917Z,34.36
2023-05-13T04:17:08.048Z,34.40
2023-05-13T04:18:08.018Z,34.35
2023-05-13T04:19:08.056Z,34.36
2023-05-13T04:20:07.920Z,34.34
2023-05-13T04:21:07.923Z,34.31
2023-05-13T04:22:07.933Z,34.34
2023-05-13T04:23:07.936Z,34.35
2023-05-13T04:24:07.938Z,34.31
2023-05-13T04:25:07.933Z,34.32
2023-05-13T04:26:07.925Z,34.34
2023-05-13T04:27:07.930Z,34.36
2023-05-13T04:28:07.979Z,34.38
2023-05-13T04:29:07.935Z,34.34
2023-05-13T04:30:07.931Z,34.32
2023-05-13T04:31:07.943Z,34.35
2023-05-13T04:32:08.036Z,34.34
2023-05-13T04:33:08.028Z,34.32
2023-05-13T04:34:07.929Z,34.34
2023-05-13T04:35:07.925Z,34.31
2023-05-13T04:36:07.930Z,34.31
2023-05-13T04:37:07.934Z,34.36
2023-05-13T04:38:07.935Z,34.35
2023-05-13T04:39:07.921Z,34.32
2023-05-13T04:40:07.943Z,34.33
2023-05-13T04:41:07.922Z,34.34
2023-05-13T04:42:07.935Z,34.35
2023-05-13T04:43:07.924Z,34.36
2023-05-13T04:44:07.938Z,34.34
2023-05-13T04:45:07.979Z,34.34
2023-05-13T04:46:07.948Z,34.31
2023-05-13T04:47:07.931Z,34.32
2023-05-13T04:48:07.972Z,34.38
2023-05-13T04:49:07.901Z,34.30
2023-05-13T04:50:07.933Z,34.35
2023-05-13T04:51:07.905Z,34.34
2023-05-13T04:52:07.898Z,34.32
2023-05-13T04:53:07.905Z,34.34
2023-05-13T04:54:07.898Z,34.28
2023-05-13T04:55:07.915Z,34.34
2023-05-13T04:56:07.903Z,34.31
2023-05-13T04:57:07.912Z,34.32
2023-05-13T04:58:07.914Z,34.31
2023-05-13T04:59:07.913Z,34.30
2023-05-13T05:00:07.926Z,34.35
2023-05-13T05:01:08.032Z,34.32
2023-05-13T05:02:07.938Z,34.38
2023-05-13T05:03:07.948Z,34.35
2023-05-13T05:04:07.946Z,34.35
2023-05-13T05:05:07.911Z,34.28
2023-05-13T05:06:07.911Z,34.34
2023-05-13T05:07:07.896Z,34.35
2023-05-13T05:08:07.962Z,34.32
2023-05-13T05:09:07.892Z,34.32
2023-05-13T05:10:07.899Z,34.31
2023-05-13T05:11:07.888Z,34.31
2023-05-13T05:12:07.887Z,34.31
2023-05-13T05:13:07.899Z,34.35
2023-05-13T05:14:07.894Z,34.32
2023-05-13T05:15:07.889Z,34.32
2023-05-13T05:16:07.884Z,34.28
2023-05-13T05:17:07.894Z,34.34
2023-05-13T05:18:08.121Z,34.34
2023-05-13T05:19:07.913Z,34.32
2023-05-13T05:20:07.874Z,34.30
2023-05-13T05:21:07.888Z,34.30
2023-05-13T05:22:07.876Z,34.32
2023-05-13T05:23:07.884Z,34.28
2023-05-13T05:24:07.875Z,34.34
2023-05-13T05:25:07.870Z,34.27
2023-05-13T05:26:11.574Z,34.34
2023-05-13T05:27:07.861Z,34.34
2023-05-13T05:28:07.903Z,34.30
2023-05-13T05:29:07.853Z,34.32
2023-05-13T05:30:07.877Z,34.27
2023-05-13T05:31:07.889Z,34.28
2023-05-13T05:32:07.834Z,34.30
2023-05-13T05:33:07.854Z,34.26
2023-05-13T05:34:07.815Z,34.27
2023-05-13T05:35:07.812Z,34.29
2023-05-13T05:36:07.797Z,34.26
2023-05-13T05:37:07.786Z,34.30
2023-05-13T05:38:07.806Z,34.30
2023-05-13T05:39:07.784Z,34.25
2023-05-13T05:40:07.847Z,34.29
2023-05-13T05:41:07.771Z,34.27
2023-05-13T05:42:07.837Z,34.26
2023-05-13T05:43:07.752Z,34.23
2023-05-13T05:44:07.741Z,34.25
2023-05-13T05:45:07.734Z,34.25
2023-05-13T05:46:07.781Z,34.26
2023-05-13T05:47:07.806Z,34.28
2023-05-13T05:48:07.747Z,34.31
2023-05-13T05:49:07.726Z,34.22
2023-05-13T05:50:07.771Z,34.25
2023-05-13T05:51:07.699Z,34.28
2023-05-13T05:52:07.684Z,34.30
2023-05-13T05:53:07.726Z,34.26
2023-05-13T05:54:07.677Z,34.27
2023-05-13T05:55:07.668Z,34.24
2023-05-13T05:56:07.670Z,34.26
2023-05-13T05:57:07.665Z,34.23
2023-05-13T05:58:07.720Z,34.24
2023-05-13T05:59:07.633Z,34.25
2023-05-13T06:00:07.624Z,34.23
2023-05-13T06:01:07.675Z,34.23
2023-05-13T06:02:07.713Z,34.25
2023-05-13T06:03:07.895Z,34.26
2023-05-13T06:04:07.671Z,34.25
2023-05-13T06:05:07.604Z,34.23
2023-05-13T06:06:07.590Z,34.25
2023-05-13T06:07:07.659Z,34.23
2023-05-13T06:08:07.594Z,34.24
2023-05-13T06:09:07.586Z,34.26
2023-05-13T06:10:08.330Z,34.20
2023-05-13T06:11:07.568Z,34.22
2023-05-13T06:12:07.568Z,34.25
2023-05-13T06:13:07.617Z,34.23
2023-05-13T06:14:07.550Z,34.21
2023-05-13T06:15:07.543Z,34.21
2023-05-13T06:16:07.719Z,34.24
2023-05-13T06:17:07.591Z,34.25
2023-05-13T06:18:07.546Z,34.19
2023-05-13T06:19:07.600Z,34.22
2023-05-13T06:20:07.515Z,34.19
2023-05-13T06:21:07.506Z,34.23
2023-05-13T06:22:07.489Z,34.15
2023-05-13T06:23:07.489Z,34.13
2023-05-13T06:24:07.487Z,34.18
2023-05-13T06:25:07.465Z,34.18
2023-05-13T06:26:07.474Z,34.21
2023-05-13T06:27:07.461Z,34.18
2023-05-13T06:28:07.447Z,34.20
2023-05-13T06:29:07.440Z,34.21
2023-05-13T06:30:07.434Z,34.21
2023-05-13T06:31:07.451Z,34.20
2023-05-13T06:32:07.434Z,34.19
2023-05-13T06:33:07.484Z,34.13
2023-05-13T06:34:07.415Z,34.15
2023-05-13T06:35:07.404Z,34.19
2023-05-13T06:36:07.400Z,34.19
2023-05-13T06:37:07.395Z,34.12
2023-05-13T06:38:07.384Z,34.19
2023-05-13T06:39:07.389Z,34.17
2023-05-13T06:40:07.382Z,34.18
2023-05-13T06:41:07.373Z,34.11
2023-05-13T06:42:07.354Z,34.16
2023-05-13T06:43:07.379Z,34.15
2023-05-13T06:44:07.346Z,34.12
2023-05-13T06:45:07.329Z,34.13
2023-05-13T06:46:08.004Z,34.10
2023-05-13T06:47:07.355Z,34.07
2023-05-13T06:48:07.351Z,34.10
2023-05-13T06:49:07.300Z,34.10
2023-05-13T06:50:07.389Z,34.06
2023-05-13T06:51:07.294Z,34.10
2023-05-13T06:52:07.292Z,34.05
2023-05-13T06:53:07.277Z,34.10
2023-05-13T06:54:07.271Z,34.05
2023-05-13T06:55:07.273Z,34.05
2023-05-13T06:56:07.258Z,34.02
2023-05-13T06:57:07.247Z,34.05
2023-05-13T06:58:07.240Z,34.08
2023-05-13T06:59:07.245Z,34.03
2023-05-13T07:00:07.236Z,34.02
2023-05-13T07:01:07.249Z,34.04
2023-05-13T07:02:07.271Z,34.02
2023-05-13T07:03:07.292Z,34.05
2023-05-13T07:04:07.233Z,34.05
2023-05-13T07:05:08.195Z,34.03
2023-05-13T07:06:07.339Z,34.05
2023-05-13T07:07:07.355Z,34.06
2023-05-13T07:08:07.344Z,34.06
2023-05-13T07:09:08.597Z,34.03
2023-05-13T07:10:07.359Z,34.03
2023-05-13T07:11:07.344Z,33.98
2023-05-13T07:12:07.360Z,34.05
2023-05-13T07:13:07.369Z,34.02
2023-05-13T07:14:07.367Z,34.01
2023-05-13T07:15:07.363Z,34.03
2023-05-13T07:16:07.370Z,34.04
2023-05-13T07:17:07.377Z,34.05
2023-05-13T07:18:08.086Z,34.00
2023-05-13T07:19:07.437Z,33.98
2023-05-13T07:20:07.350Z,34.05
2023-05-13T07:21:08.103Z,33.99
2023-05-13T07:22:07.361Z,33.99
2023-05-13T07:23:07.359Z,34.01
2023-05-13T07:24:07.359Z,34.03
2023-05-13T07:25:07.360Z,33.98
2023-05-13T07:26:07.373Z,33.95
2023-05-13T07:27:07.376Z,34.00
2023-05-13T07:28:07.392Z,33.94
2023-05-13T07:29:07.426Z,33.92
2023-05-13T07:30:07.440Z,33.94
2023-05-13T07:31:07.511Z,33.95
2023-05-13T07:32:07.509Z,33.95
2023-05-13T07:33:07.517Z,33.98
2023-05-13T07:34:07.514Z,33.92
2023-05-13T07:35:07.525Z,33.90
2023-05-13T07:36:07.536Z,33.98
2023-05-13T07:37:07.557Z,33.94
2023-05-13T07:38:07.572Z,33.92
2023-05-13T07:39:07.580Z,33.92
2023-05-13T07:40:07.611Z,33.95
2023-05-13T07:41:07.610Z,33.90
2023-05-13T07:42:07.669Z,33.94
2023-05-13T07:43:07.649Z,33.94
2023-05-13T07:44:07.660Z,33.93
2023-05-13T07:45:07.676Z,33.92
2023-05-13T07:46:07.699Z,33.92
2023-05-13T07:47:07.774Z,33.94
2023-05-13T07:48:07.743Z,33.95
2023-05-13T07:49:07.757Z,33.94
2023-05-13T07:50:07.788Z,33.98
2023-05-13T07:51:07.809Z,33.94
2023-05-13T07:52:07.849Z,33.93
2023-05-13T07:53:07.846Z,33.91
2023-05-13T07:54:07.850Z,33.94
2023-05-13T07:55:07.849Z,33.93
2023-05-13T07:56:07.869Z,33.93
2023-05-13T07:57:07.847Z,33.96
2023-05-13T07:58:07.851Z,33.95
2023-05-13T07:59:07.839Z,33.95
2023-05-13T08:00:07.837Z,33.96
2023-05-13T08:01:07.842Z,33.96
2023-05-13T08:02:07.850Z,33.95
2023-05-13T08:03:07.929Z,33.96
2023-05-13T08:04:08.005Z,33.98
2023-05-13T08:05:08.049Z,33.91
2023-05-13T08:06:07.919Z,33.96
2023-05-13T08:07:07.988Z,33.96
2023-05-13T08:08:07.925Z,33.95
2023-05-13T08:09:07.928Z,33.94
2023-05-13T08:10:07.928Z,33.98
2023-05-13T08:11:07.926Z,33.96
2023-05-13T08:12:07.934Z,33.93
2023-05-13T08:13:07.925Z,33.91
2023-05-13T08:14:07.929Z,33.94
2023-05-13T08:15:07.935Z,33.91
2023-05-13T08:16:07.975Z,33.96
2023-05-13T08:17:07.921Z,33.89
2023-05-13T08:18:07.999Z,33.91
2023-05-13T08:19:08.034Z,33.94
2023-05-13T08:20:07.977Z,33.94
2023-05-13T08:21:07.967Z,33.91
2023-05-13T08:22:07.967Z,33.94
2023-05-13T08:23:07.967Z,33.90
2023-05-13T08:24:07.968Z,33.90
2023-05-13T08:25:07.972Z,33.91
2023-05-13T08:26:07.969Z,33.91
2023-05-13T08:27:07.985Z,33.86
2023-05-13T08:28:08.009Z,33.92
2023-05-13T08:29:07.999Z,33.91
2023-05-13T08:30:07.999Z,33.92
2023-05-13T08:31:08.007Z,33.92
2023-05-13T08:32:08.064Z,33.95
2023-05-13T08:33:08.051Z,33.94
2023-05-13T08:34:08.026Z,33.94
2023-05-13T08:35:08.037Z,33.88
2023-05-13T08:36:08.047Z,33.92
2023-05-13T08:37:08.039Z,33.91
2023-05-13T08:38:08.041Z,33.92
2023-05-13T08:39:08.045Z,33.90
2023-05-13T08:40:08.043Z,33.92
2023-05-13T08:41:08.054Z,33.95
2023-05-13T08:42:08.064Z,33.95
2023-05-13T08:43:08.048Z,33.90
2023-05-13T08:44:08.041Z,33.94
2023-05-13T08:45:08.039Z,33.94
2023-05-13T08:46:08.050Z,33.95
2023-05-13T08:47:08.036Z,34.00
2023-05-13T08:48:08.593Z,33.95
2023-05-13T08:49:08.018Z,33.95
2023-05-13T08:50:08.052Z,33.97
2023-05-13T08:51:08.022Z,33.93
2023-05-13T08:52:08.026Z,33.92
2023-05-13T08:53:08.035Z,33.95
2023-05-13T08:54:08.027Z,33.92
2023-05-13T08:55:08.041Z,33.87
2023-05-13T08:56:08.051Z,33.94
2023-05-13T08:57:08.063Z,33.92
2023-05-13T08:58:08.068Z,33.90
2023-05-13T08:59:08.051Z,33.92
2023-05-13T09:00:08.055Z,33.93
2023-05-13T09:01:08.085Z,33.92
2023-05-13T09:02:08.053Z,33.91
2023-05-13T09:03:08.072Z,33.94
2023-05-13T09:04:08.054Z,33.90
2023-05-13T09:05:08.078Z,33.90
2023-05-13T09:06:08.059Z,33.90
2023-05-13T09:07:08.140Z,33.92
2023-05-13T09:08:08.133Z,33.92
2023-05-13T09:09:08.059Z,33.91
2023-05-13T09:10:08.062Z,33.87
2023-05-13T09:11:08.063Z,33.87
2023-05-13T09:12:08.072Z,33.90
2023-05-13T09:13:08.586Z,33.92
2023-05-13T09:14:08.059Z,33.88
2023-05-13T09:15:08.071Z,33.90
2023-05-13T09:16:08.140Z,33.90
2023-05-13T09:17:08.137Z,33.91
2023-05-13T09:18:08.219Z,33.90
2023-05-13T09:19:08.205Z,33.90
2023-05-13T09:20:08.097Z,33.91
2023-05-13T09:21:08.078Z,33.87
2023-05-13T09:22:08.084Z,33.92
2023-05-13T09:23:08.100Z,33.88
2023-05-13T09:24:09.516Z,33.88
2023-05-13T09:25:08.101Z,33.87
2023-05-13T09:26:08.088Z,33.90
2023-05-13T09:27:08.085Z,33.90
2023-05-13T09:28:08.193Z,33.83
2023-05-13T09:29:08.068Z,33.91
2023-05-13T09:30:08.054Z,33.90
2023-05-13T09:31:08.082Z,33.87
2023-05-13T09:32:08.037Z,33.87
2023-05-13T09:33:08.179Z,33.90
2023-05-13T09:34:08.033Z,33.86
2023-05-13T09:35:08.045Z,33.85
2023-05-13T09:36:08.055Z,33.87
2023-05-13T09:37:08.041Z,33.90
2023-05-13T09:38:07.996Z,33.86
2023-05-13T09:39:08.001Z,33.91
2023-05-13T09:40:08.003Z,33.82
2023-05-13T09:41:08.010Z,33.86
2023-05-13T09:42:08.034Z,33.86
2023-05-13T09:43:07.982Z,33.83
2023-05-13T09:44:07.972Z,33.82
2023-05-13T09:45:07.952Z,33.83
2023-05-13T09:46:07.944Z,33.86
2023-05-13T09:47:08.710Z,33.86
2023-05-13T09:48:07.944Z,33.87
2023-05-13T09:49:07.935Z,33.85
2023-05-13T09:50:07.930Z,33.81
2023-05-13T09:51:07.921Z,33.83
2023-05-13T09:52:07.902Z,33.86
2023-05-13T09:53:07.897Z,33.83
2023-05-13T09:54:07.904Z,33.83
2023-05-13T09:55:07.884Z,33.83
2023-05-13T09:56:07.882Z,33.90
2023-05-13T09:57:08.578Z,33.88
2023-05-13T09:58:07.869Z,33.86
2023-05-13T09:59:07.941Z,33.87
2023-05-13T10:00:12.854Z,33.88
2023-05-13T10:01:09.121Z,33.83
2023-05-13T10:02:07.856Z,33.89
2023-05-13T10:03:07.858Z,33.87
2023-05-13T10:04:07.960Z,33.89
2023-05-13T10:05:07.817Z,33.91
2023-05-13T10:06:07.808Z,33.86
2023-05-13T10:07:07.813Z,33.89
2023-05-13T10:08:07.798Z,33.90
2023-05-13T10:09:07.799Z,33.91
2023-05-13T10:10:07.848Z,33.88
2023-05-13T10:11:07.785Z,33.87
2023-05-13T10:12:07.826Z,33.88
2023-05-13T10:13:07.772Z,33.88
2023-05-13T10:14:07.753Z,33.91
2023-05-13T10:15:07.753Z,33.88
2023-05-13T10:16:07.765Z,33.87
2023-05-13T10:17:07.800Z,33.92
2023-05-13T10:18:07.816Z,33.92
2023-05-13T10:19:07.833Z,33.89
2023-05-13T10:20:08.097Z,33.92
2023-05-13T10:21:07.718Z,33.90
2023-05-13T10:22:07.710Z,33.93
2023-05-13T10:23:07.693Z,33.92
2023-05-13T10:24:07.688Z,33.91
2023-05-13T10:25:07.706Z,33.87
2023-05-13T10:26:07.685Z,33.91
2023-05-13T10:27:07.665Z,33.89
2023-05-13T10:28:07.647Z,33.87
2023-05-13T10:29:07.645Z,33.86
2023-05-13T10:30:07.647Z,33.87
2023-05-13T10:31:07.630Z,33.86
2023-05-13T10:32:07.788Z,33.88
2023-05-13T10:33:07.674Z,33.89
2023-05-13T10:34:07.614Z,33.88
2023-05-13T10:35:07.619Z,33.86
2023-05-13T10:36:07.582Z,33.89
2023-05-13T10:37:07.586Z,33.85
2023-05-13T10:38:07.589Z,33.87
2023-05-13T10:39:07.567Z,33.85
2023-05-13T10:40:07.557Z,33.83
2023-05-13T10:41:07.550Z,33.82
2023-05-13T10:42:07.546Z,33.77
2023-05-13T10:43:07.532Z,33.78
2023-05-13T10:44:09.256Z,33.82
2023-05-13T10:45:07.526Z,33.83
2023-05-13T10:46:07.577Z,33.81
2023-05-13T10:47:07.546Z,33.78
2023-05-13T10:48:07.623Z,33.76
2023-05-13T10:49:07.512Z,33.84
2023-05-13T10:50:07.554Z,33.80
2023-05-13T10:51:07.481Z,33.82
2023-05-13T10:52:07.471Z,33.80
2023-05-13T10:53:07.464Z,33.76
2023-05-13T10:54:07.457Z,33.81
2023-05-13T10:55:07.457Z,33.77
2023-05-13T10:56:07.452Z,33.78
2023-05-13T10:57:07.434Z,33.74
2023-05-13T10:58:07.436Z,33.79
2023-05-13T10:59:07.425Z,33.80
2023-05-13T11:00:07.415Z,33.73
2023-05-13T11:01:07.478Z,33.71
2023-05-13T11:02:07.482Z,33.76
2023-05-13T11:03:07.543Z,33.74
2023-05-13T11:04:07.538Z,33.76
2023-05-13T11:05:07.439Z,33.73
2023-05-13T11:06:07.457Z,33.68
2023-05-13T11:07:07.521Z,33.74
2023-05-13T11:08:07.468Z,33.74
2023-05-13T11:09:07.506Z,33.76
2023-05-13T11:10:07.493Z,33.74
2023-05-13T11:11:07.493Z,33.72
2023-05-13T11:12:07.559Z,33.74
2023-05-13T11:13:07.486Z,33.71
2023-05-13T11:14:08.511Z,33.76
2023-05-13T11:15:07.527Z,33.71
2023-05-13T11:16:07.705Z,33.70
2023-05-13T11:17:07.652Z,33.75
2023-05-13T11:18:07.699Z,33.69
2023-05-13T11:19:07.743Z,33.72
2023-05-13T11:20:07.590Z,33.73
2023-05-13T11:21:07.629Z,33.75
2023-05-13T11:22:07.601Z,33.72
2023-05-13T11:23:07.629Z,33.72
2023-05-13T11:24:07.617Z,33.76
2023-05-13T11:25:07.637Z,33.75
2023-05-13T11:26:08.927Z,33.77
2023-05-13T11:27:07.674Z,33.76
2023-05-13T11:28:07.700Z,33.75
2023-05-13T11:29:07.716Z,33.74
2023-05-13T11:30:07.757Z,33.72
2023-05-13T11:31:07.768Z,33.72
2023-05-13T11:32:07.777Z,33.64
2023-05-13T11:33:07.976Z,33.69
2023-05-13T11:34:07.849Z,33.67
2023-05-13T11:35:07.872Z,33.60
2023-05-13T11:36:07.904Z,33.64
2023-05-13T11:37:07.923Z,33.60
2023-05-13T11:38:07.960Z,33.64
2023-05-13T11:39:07.991Z,33.56
2023-05-13T11:40:08.030Z,33.55
2023-05-13T11:41:08.086Z,33.51
2023-05-13T11:42:08.143Z,33.51
2023-05-13T11:43:08.172Z,33.50
2023-05-13T11:44:08.239Z,33.45
2023-05-13T11:45:08.292Z,33.43
2023-05-13T11:46:08.425Z,33.43
2023-05-13T11:47:08.413Z,33.45
2023-05-13T11:48:08.465Z,33.41
2023-05-13T11:49:08.502Z,33.36
2023-05-13T11:50:08.560Z,33.41
2023-05-13T11:51:08.630Z,33.38
2023-05-13T11:52:08.675Z,33.34
2023-05-13T11:53:08.802Z,33.38
2023-05-13T11:54:08.797Z,33.37
2023-05-13T11:55:08.854Z,33.35
2023-05-13T11:56:08.921Z,33.35
2023-05-13T11:57:08.966Z,33.33
2023-05-13T11:58:09.030Z,33.31
2023-05-13T11:59:09.096Z,33.33
2023-05-13T12:00:09.162Z,33.34
2023-05-13T12:01:09.211Z,33.30
2023-05-13T12:02:09.339Z,33.30
2023-05-13T12:03:09.381Z,33.30
2023-05-13T12:04:09.398Z,33.31
2023-05-13T12:05:09.522Z,33.34
2023-05-13T12:06:09.508Z,33.30
2023-05-13T12:07:09.570Z,33.36
2023-05-13T12:08:10.134Z,33.31
2023-05-13T12:09:09.831Z,33.26
2023-05-13T12:10:09.752Z,33.24
2023-05-13T12:11:09.819Z,33.25
2023-05-13T12:12:09.868Z,33.27
2023-05-13T12:13:09.921Z,33.24
2023-05-13T12:14:09.986Z,33.32
2023-05-13T12:15:10.048Z,33.24
2023-05-13T12:16:10.144Z,33.27
2023-05-13T12:17:10.163Z,33.29
2023-05-13T12:18:10.308Z,33.23
2023-05-13T12:19:10.477Z,33.23
2023-05-13T12:20:10.362Z,33.23
2023-05-13T12:21:11.134Z,33.20
2023-05-13T12:22:10.472Z,33.25
2023-05-13T12:23:10.511Z,33.22
2023-05-13T12:24:10.563Z,33.24
2023-05-13T12:25:10.624Z,33.25
2023-05-13T12:26:10.687Z,33.27
2023-05-13T12:27:11.505Z,33.29
2023-05-13T12:28:10.794Z,33.27
2023-05-13T12:29:10.848Z,33.24
2023-05-13T12:30:10.915Z,33.29
2023-05-13T12:31:10.988Z,33.29
2023-05-13T12:32:11.020Z,33.26
2023-05-13T12:33:11.133Z,33.23
2023-05-13T12:34:11.136Z,33.29
2023-05-13T12:35:11.196Z,33.23
2023-05-13T12:36:11.265Z,33.31
2023-05-13T12:37:11.447Z,33.27
2023-05-13T12:38:11.469Z,33.27
2023-05-13T12:39:11.482Z,33.28
2023-05-13T12:40:11.491Z,33.28
2023-05-13T12:41:11.539Z,33.30
2023-05-13T12:42:11.599Z,33.28
2023-05-13T12:43:11.673Z,33.28
2023-05-13T12:44:11.712Z,33.30
2023-05-13T12:45:11.769Z,33.27
2023-05-13T12:46:11.913Z,33.24
2023-05-13T12:47:11.920Z,33.23
2023-05-13T12:48:12.090Z,33.22
2023-05-13T12:49:12.031Z,33.17
2023-05-13T12:50:12.065Z,33.14
2023-05-13T12:51:12.121Z,33.17
2023-05-13T12:52:12.246Z,33.16